Time;durP1;ratioP1;P1;durP2;ratioP2;P2;SDS_P1;SDS_P2;PMS_P1;PMS_P2;Temp;Humidity;BMP_temperature;BMP_pressure;BME280_temperature;BME280_humidity;BME280_pressure;Samples;Min_cycle;Max_cycle;Signal;HPM_P1;HPM_P2
2023/02/16 00:02:03;;;;;;;32.88;21.48;;;;;;;;;;5026072;28;20359;-67
2023/02/16 00:04:30;;;;;;;36.40;23.33;;;;;;;;;;5047772;28;20036;-66
2023/02/16 00:06:56;;;;;;;34.83;21.95;;;;;;;;;;5030639;28;20458;-67
2023/02/16 00:09:23;;;;;;;35.40;21.52;;;;;;;;;;5048112;28;20131;-67
2023/02/16 00:14:36;;;;;;;37.75;23.35;;;;;;;;;;5047524;28;20036;-67
2023/02/16 00:17:02;;;;;;;34.42;22.95;;;;;;;;;;4697147;28;10000311;-64
2023/02/16 00:19:30;;;;;;;37.88;22.88;;;;;;;;;;5047072;28;20028;-66
2023/02/16 00:21:57;;;;;;;36.17;21.80;;;;;;;;;;5047752;28;20075;-64
2023/02/16 00:24:24;;;;;;;39.22;22.48;;;;;;;;;;5048287;28;20040;-65
2023/02/16 00:26:50;;;;;;;39.55;23.85;;;;;;;;;;5031665;28;20108;-64
2023/02/16 00:29:21;;;;;;;39.33;23.60;;;;;;;;;;5048278;28;20033;-65
2023/02/16 00:31:48;;;;;;;37.58;23.02;;;;;;;;;;5049257;28;20021;-64
2023/02/16 00:34:20;;;;;;;37.72;23.27;;;;;;;;;;5048883;28;20092;-66
2023/02/16 00:36:46;;;;;;;36.42;24.70;;;;;;;;;;5050204;28;20435;-65
2023/02/16 00:39:12;;;;;;;35.08;22.88;;;;;;;;;;5049922;28;20028;-66
2023/02/16 00:41:52;;;;;;;37.88;23.85;;;;;;;;;;5049836;28;20060;-65
2023/02/16 00:44:25;;;;;;;38.58;24.20;;;;;;;;;;5063747;23;20045;-60
2023/02/16 00:46:51;;;;;;;37.40;24.38;;;;;;;;;;5050858;28;20037;-59
2023/02/16 00:49:18;;;;;;;38.17;22.58;;;;;;;;;;5050976;28;20023;-61
2023/02/16 00:51:44;;;;;;;35.53;22.85;;;;;;;;;;5051422;28;20021;-58
2023/02/16 00:54:10;;;;;;;41.95;25.05;;;;;;;;;;5050410;28;20025;-60
2023/02/16 00:56:36;;;;;;;40.13;24.08;;;;;;;;;;5051413;28;20028;-60
2023/02/16 00:59:05;;;;;;;33.92;23.63;;;;;;;;;;5051329;28;20021;-58
2023/02/16 01:01:32;;;;;;;36.42;22.75;;;;;;;;;;5051297;28;20037;-60
2023/02/16 01:04:00;;;;;;;45.33;24.60;;;;;;;;;;5050443;28;20108;-59
2023/02/16 01:11:57;;;;;;;34.80;22.95;;;;;;;;;;5055067;28;20035;-60
2023/02/16 01:14:24;;;;;;;36.05;23.60;;;;;;;;;;5054134;28;20033;-58
2023/02/16 01:16:50;;;;;;;38.67;24.35;;;;;;;;;;5055029;28;20029;-61
2023/02/16 01:19:16;;;;;;;36.08;23.40;;;;;;;;;;5054945;28;20029;-58
2023/02/16 01:21:42;;;;;;;36.50;24.58;;;;;;;;;;5055052;28;20025;-61
2023/02/16 01:24:08;;;;;;;39.55;22.83;;;;;;;;;;5054027;28;20021;-60
2023/02/16 01:26:39;;;;;;;37.38;25.38;;;;;;;;;;5037129;28;20032;-60
2023/02/16 01:29:05;;;;;;;42.00;24.10;;;;;;;;;;5054792;28;20020;-61
2023/02/16 01:31:31;;;;;;;38.65;24.90;;;;;;;;;;5036836;28;20052;-60
2023/02/16 01:33:57;;;;;;;36.92;23.77;;;;;;;;;;5035987;28;20052;-58
2023/02/16 01:36:33;;;;;;;34.58;21.88;;;;;;;;;;5054555;28;20063;-60
2023/02/16 01:38:59;;;;;;;44.47;27.85;;;;;;;;;;5036559;28;20033;-62
2023/02/16 01:41:34;;;;;;;42.20;24.08;;;;;;;;;;5054388;28;20025;-59
2023/02/16 01:44:07;;;;;;;41.60;25.02;;;;;;;;;;5053554;28;20032;-60
2023/02/16 01:46:53;;;;;;;41.30;25.05;;;;;;;;;;5036248;28;20045;-60
2023/02/16 01:49:19;;;;;;;41.05;27.08;;;;;;;;;;5053940;28;20033;-61
2023/02/16 01:51:49;;;;;;;43.55;25.88;;;;;;;;;;5054141;28;20397;-61
2023/02/16 01:54:23;;;;;;;36.20;23.98;;;;;;;;;;5035574;28;20028;-61
2023/02/16 01:56:55;;;;;;;40.38;24.85;;;;;;;;;;5054182;28;20392;-60
2023/02/16 01:59:24;;;;;;;36.65;24.92;;;;;;;;;;5053873;28;20389;-61
2023/02/16 02:01:53;;;;;;;40.80;25.52;;;;;;;;;;5053980;28;20116;-62
2023/02/16 02:07:10;;;;;;;42.45;25.52;;;;;;;;;;5053970;28;20095;-60
2023/02/16 02:09:36;;;;;;;40.38;27.05;;;;;;;;;;5053946;28;20100;-60
2023/02/16 02:12:27;;;;;;;39.25;25.08;;;;;;;;;;5053900;28;20120;-60
2023/02/16 02:14:55;;;;;;;37.10;24.05;;;;;;;;;;5053050;28;20025;-60
2023/02/16 02:17:21;;;;;;;41.15;25.20;;;;;;;;;;5053173;28;20099;-59
2023/02/16 02:19:50;;;;;;;40.35;26.33;;;;;;;;;;5053105;28;20057;-60
2023/02/16 02:25:07;;;;;;;38.33;26.70;;;;;;;;;;5052816;28;20102;-61
2023/02/16 02:27:44;;;;;;;40.13;25.55;;;;;;;;;;5053530;28;20021;-60
2023/02/16 02:30:10;;;;;;;39.17;24.85;;;;;;;;;;5053401;28;20444;-60
2023/02/16 02:32:42;;;;;;;39.90;24.45;;;;;;;;;;5053362;28;20056;-60
2023/02/16 02:35:07;;;;;;;40.25;27.02;;;;;;;;;;5052608;28;20025;-60
2023/02/16 02:37:40;;;;;;;41.88;28.17;;;;;;;;;;5053383;28;20086;-59
2023/02/16 02:40:09;;;;;;;40.53;24.65;;;;;;;;;;5053141;28;20082;-57
2023/02/16 02:42:59;;;;;;;42.38;25.73;;;;;;;;;;5053242;28;20666;-60
2023/02/16 02:45:28;;;;;;;41.05;25.95;;;;;;;;;;5034623;28;20052;-60
2023/02/16 02:47:54;;;;;;;40.55;25.75;;;;;;;;;;5052967;28;20103;-59
2023/02/16 02:50:38;;;;;;;40.92;26.23;;;;;;;;;;5053010;28;20025;-60
2023/02/16 02:53:07;;;;;;;42.45;28.27;;;;;;;;;;5052287;28;20082;-58
2023/02/16 03:01:06;;;;;;;37.25;25.45;;;;;;;;;;5053020;28;20460;-59
2023/02/16 03:03:34;;;;;;;40.17;26.80;;;;;;;;;;5052005;28;20052;-59
2023/02/16 03:06:03;;;;;;;47.28;26.42;;;;;;;;;;5052915;28;20086;-60
2023/02/16 03:08:31;;;;;;;40.65;26.80;;;;;;;;;;5052761;28;20057;-59
2023/02/16 03:14:03;;;;;;;42.50;26.02;;;;;;;;;;5051727;28;20040;-57
2023/02/16 03:16:44;;;;;;;43.63;25.85;;;;;;;;;;5052641;28;20060;-59
2023/02/16 03:30:14;;;;;;;40.50;24.88;;;;;;;;;;5052754;28;20068;-58
2023/02/16 03:32:41;;;;;;;39.28;24.85;;;;;;;;;;5052954;28;20021;-61
2023/02/16 03:35:07;;;;;;;39.03;25.23;;;;;;;;;;5051572;28;20112;-61
2023/02/16 03:37:33;;;;;;;37.33;24.45;;;;;;;;;;5052148;28;20028;-61
2023/02/16 03:42:48;;;;;;;41.17;24.73;;;;;;;;;;5052308;28;20036;-62
2023/02/16 03:45:14;;;;;;;42.22;25.25;;;;;;;;;;5033210;28;20029;-59
2023/02/16 03:47:40;;;;;;;36.20;23.35;;;;;;;;;;5052501;28;20052;-60
2023/02/16 03:50:07;;;;;;;42.50;26.48;;;;;;;;;;5052288;28;20076;-59
2023/02/16 03:52:33;;;;;;;40.00;25.92;;;;;;;;;;5034659;28;20025;-60
2023/02/16 03:54:59;;;;;;;43.58;27.88;;;;;;;;;;5051585;28;20020;-59
2023/02/16 03:57:25;;;;;;;43.15;26.38;;;;;;;;;;5051841;28;20112;-59
2023/02/16 03:59:54;;;;;;;37.50;24.83;;;;;;;;;;5051641;28;20025;-61
2023/02/16 04:02:20;;;;;;;42.03;25.45;;;;;;;;;;5033793;28;20519;-59
2023/02/16 04:04:46;;;;;;;40.20;24.02;;;;;;;;;;5050813;28;20183;-59
2023/02/16 04:07:12;;;;;;;42.47;26.15;;;;;;;;;;5051666;28;20032;-60
2023/02/16 04:09:38;;;;;;;40.35;24.45;;;;;;;;;;5051612;28;20017;-59
2023/02/16 04:14:49;;;;;;;44.95;26.90;;;;;;;;;;5050963;28;20132;-61
2023/02/16 04:17:15;;;;;;;39.90;24.92;;;;;;;;;;5033434;28;20021;-59
2023/02/16 04:19:41;;;;;;;39.85;24.63;;;;;;;;;;5051296;28;20024;-60
2023/02/16 04:22:07;;;;;;;45.30;25.92;;;;;;;;;;5051396;28;20075;-60
2023/02/16 04:24:33;;;;;;;43.63;24.25;;;;;;;;;;5032839;28;20048;-60
2023/02/16 04:26:59;;;;;;;39.50;26.20;;;;;;;;;;5051387;28;20282;-59
2023/02/16 04:29:25;;;;;;;39.10;25.80;;;;;;;;;;5051443;28;20046;-59
2023/02/16 04:31:52;;;;;;;37.40;24.00;;;;;;;;;;5051502;28;20110;-59
2023/02/16 04:34:18;;;;;;;38.38;25.20;;;;;;;;;;5050476;28;20021;-59
2023/02/16 04:36:44;;;;;;;41.28;26.23;;;;;;;;;;5034356;28;20074;-58
2023/02/16 04:39:10;;;;;;;37.22;25.90;;;;;;;;;;5051490;28;20488;-59
2023/02/16 04:41:35;;;;;;;38.63;25.85;;;;;;;;;;5050397;28;20021;-59
2023/02/16 04:44:01;;;;;;;38.38;23.30;;;;;;;;;;5050174;28;20369;-59
2023/02/16 04:46:27;;;;;;;42.38;25.33;;;;;;;;;;5051200;28;20025;-58
2023/02/16 04:48:53;;;;;;;41.05;26.15;;;;;;;;;;5048717;28;20022;-59
2023/02/16 04:51:19;;;;;;;42.17;23.55;;;;;;;;;;5042987;28;20149;-60
2023/02/16 04:53:45;;;;;;;38.08;24.27;;;;;;;;;;5050594;28;20150;-60
2023/02/16 04:56:12;;;;;;;40.20;23.33;;;;;;;;;;5045775;28;20022;-61
2023/02/16 04:58:38;;;;;;;38.88;23.35;;;;;;;;;;5029636;28;20021;-60
2023/02/16 05:01:04;;;;;;;38.75;25.30;;;;;;;;;;5043611;28;20060;-58
2023/02/16 05:03:30;;;;;;;39.58;25.27;;;;;;;;;;5050334;28;20034;-58
2023/02/16 05:05:56;;;;;;;40.38;26.50;;;;;;;;;;5033035;28;20048;-60
2023/02/16 05:08:22;;;;;;;34.90;22.83;;;;;;;;;;5051055;28;20497;-59
2023/02/16 05:16:20;;;;;;;38.58;25.13;;;;;;;;;;5051000;28;20511;-58
2023/02/16 05:18:46;;;;;;;40.40;26.50;;;;;;;;;;5050779;28;20064;-59
2023/02/16 05:21:29;;;;;;;39.72;27.15;;;;;;;;;;5032624;28;20060;-61
2023/02/16 05:23:56;;;;;;;36.72;25.67;;;;;;;;;;5049999;28;20132;-59
2023/02/16 05:26:22;;;;;;;41.55;26.40;;;;;;;;;;5051115;28;20041;-59
2023/02/16 05:28:48;;;;;;;37.58;26.60;;;;;;;;;;5050679;28;20025;-59
2023/02/16 05:31:14;;;;;;;45.45;26.88;;;;;;;;;;5050538;28;20076;-60
2023/02/16 05:33:40;;;;;;;42.33;28.23;;;;;;;;;;5049553;28;20107;-60
2023/02/16 05:36:06;;;;;;;39.50;24.83;;;;;;;;;;5050605;28;20025;-59
2023/02/16 05:38:32;;;;;;;38.58;24.95;;;;;;;;;;5032728;28;20025;-60
2023/02/16 05:40:59;;;;;;;44.58;26.35;;;;;;;;;;5050531;28;20090;-61
2023/02/16 05:43:25;;;;;;;42.47;27.95;;;;;;;;;;5049496;28;20431;-60
2023/02/16 05:45:51;;;;;;;44.05;26.67;;;;;;;;;;5032415;28;20028;-60
2023/02/16 05:48:17;;;;;;;42.65;27.67;;;;;;;;;;5050395;28;20017;-59
2023/02/16 05:50:43;;;;;;;38.83;24.98;;;;;;;;;;5050327;28;20178;-58
2023/02/16 05:53:09;;;;;;;39.78;25.42;;;;;;;;;;5051297;28;20036;-56
2023/02/16 05:55:35;;;;;;;41.00;26.98;;;;;;;;;;5053731;28;20378;-58
2023/02/16 05:58:01;;;;;;;39.85;25.08;;;;;;;;;;5027719;28;20032;-58
2023/02/16 06:00:27;;;;;;;40.72;25.85;;;;;;;;;;5033735;28;20519;-60
2023/02/16 06:02:53;;;;;;;41.58;25.98;;;;;;;;;;5016169;28;20057;-61
2023/02/16 06:05:19;;;;;;;38.95;25.48;;;;;;;;;;5032768;28;20033;-60
2023/02/16 06:07:45;;;;;;;40.92;24.38;;;;;;;;;;5033747;28;20030;-58
2023/02/16 06:10:11;;;;;;;36.92;24.27;;;;;;;;;;5016012;28;20037;-59
2023/02/16 06:12:37;;;;;;;41.42;24.52;;;;;;;;;;5033758;28;20017;-60
2023/02/16 06:15:04;;;;;;;40.05;25.85;;;;;;;;;;5014926;28;20152;-57
2023/02/16 06:17:30;;;;;;;40.75;27.75;;;;;;;;;;5033488;28;20025;-57
2023/02/16 06:19:56;;;;;;;41.13;25.88;;;;;;;;;;5033560;28;20037;-58
2023/02/16 06:22:22;;;;;;;41.40;25.27;;;;;;;;;;5033609;28;20056;-58
2023/02/16 06:24:48;;;;;;;39.13;24.83;;;;;;;;;;5032576;28;20163;-56
2023/02/16 06:27:14;;;;;;;42.72;26.50;;;;;;;;;;5015465;28;20026;-61
2023/02/16 06:29:40;;;;;;;43.50;25.92;;;;;;;;;;5015428;28;20026;-57
2023/02/16 06:32:06;;;;;;;40.88;24.77;;;;;;;;;;5033232;28;20025;-59
2023/02/16 06:34:32;;;;;;;39.13;24.65;;;;;;;;;;5035606;28;20048;-60
2023/02/16 06:36:58;;;;;;;41.63;25.55;;;;;;;;;;5053287;28;20108;-61
2023/02/16 06:39:24;;;;;;;46.58;27.23;;;;;;;;;;5052675;28;20028;-58
2023/02/16 06:41:50;;;;;;;39.85;26.60;;;;;;;;;;5052660;28;20396;-58
2023/02/16 06:44:16;;;;;;;39.47;26.67;;;;;;;;;;5070551;22;20486;-61
2023/02/16 06:46:44;;;;;;;38.35;26.23;;;;;;;;;;5035640;28;20026;-61
2023/02/16 06:49:11;;;;;;;39.58;26.88;;;;;;;;;;5026680;28;20021;-62
2023/02/16 06:51:38;;;;;;;41.17;25.20;;;;;;;;;;5031710;28;20160;-61
2023/02/16 06:54:04;;;;;;;43.60;28.52;;;;;;;;;;5040090;28;20025;-62
2023/02/16 06:56:30;;;;;;;44.15;27.50;;;;;;;;;;5023403;28;20108;-62
2023/02/16 06:58:56;;;;;;;38.95;24.30;;;;;;;;;;5012077;28;20053;-56
2023/02/16 07:01:24;;;;;;;43.70;24.27;;;;;;;;;;5027130;28;20033;-60
2023/02/16 07:03:50;;;;;;;43.13;26.38;;;;;;;;;;5031375;28;20075;-62
2023/02/16 07:06:16;;;;;;;41.08;23.80;;;;;;;;;;5015094;28;20033;-62
2023/02/16 07:08:42;;;;;;;41.20;26.60;;;;;;;;;;5032962;28;20397;-62
2023/02/16 07:11:08;;;;;;;39.88;25.20;;;;;;;;;;5032711;28;20034;-61
2023/02/16 07:13:35;;;;;;;40.58;23.58;;;;;;;;;;5032026;28;20033;-62
2023/02/16 07:16:02;;;;;;;38.72;24.23;;;;;;;;;;5033276;28;20478;-62
2023/02/16 07:18:28;;;;;;;36.65;24.63;;;;;;;;;;5014844;28;20033;-63
2023/02/16 07:20:54;;;;;;;44.60;25.80;;;;;;;;;;5032481;28;20060;-62
2023/02/16 07:23:20;;;;;;;37.58;24.10;;;;;;;;;;5031904;28;20029;-60
2023/02/16 07:25:46;;;;;;;39.22;23.35;;;;;;;;;;5015537;28;20017;-62
2023/02/16 07:28:12;;;;;;;35.95;23.00;;;;;;;;;;5032874;28;20474;-61
2023/02/16 07:30:38;;;;;;;43.38;24.90;;;;;;;;;;5015066;28;20108;-61
2023/02/16 07:33:07;;;;;;;38.08;23.88;;;;;;;;;;5031819;28;20711;-62
2023/02/16 07:35:34;;;;;;;46.42;25.80;;;;;;;;;;5031260;28;20083;-62
2023/02/16 07:38:00;;;;;;;36.90;24.15;;;;;;;;;;5032514;28;20415;-62
2023/02/16 07:40:26;;;;;;;39.30;24.92;;;;;;;;;;5014601;28;20116;-62
2023/02/16 07:42:53;;;;;;;37.08;23.30;;;;;;;;;;5014501;28;20091;-62
2023/02/16 07:45:19;;;;;;;37.95;23.20;;;;;;;;;;5031423;28;20030;-62
2023/02/16 07:47:45;;;;;;;37.65;21.75;;;;;;;;;;5031970;28;20184;-62
2023/02/16 07:50:11;;;;;;;42.90;25.73;;;;;;;;;;5014742;28;20028;-60
2023/02/16 07:52:37;;;;;;;37.33;24.33;;;;;;;;;;5031905;28;20033;-60
2023/02/16 07:55:04;;;;;;;38.60;24.58;;;;;;;;;;5031499;28;20021;-59
2023/02/16 07:57:30;;;;;;;38.10;22.42;;;;;;;;;;5031942;28;20025;-61
2023/02/16 07:59:56;;;;;;;38.35;22.65;;;;;;;;;;5014218;28;20033;-62
2023/02/16 08:02:23;;;;;;;39.75;24.75;;;;;;;;;;5031945;28;20033;-62
2023/02/16 08:04:51;;;;;;;39.17;23.67;;;;;;;;;;5030964;28;20478;-62
2023/02/16 08:07:18;;;;;;;41.58;24.75;;;;;;;;;;5014006;28;20107;-59
2023/02/16 08:09:44;;;;;;;43.90;26.42;;;;;;;;;;5031476;28;20080;-61
2023/02/16 08:12:11;;;;;;;40.83;25.95;;;;;;;;;;5031668;28;20499;-59
2023/02/16 08:14:37;;;;;;;40.20;23.52;;;;;;;;;;5013006;28;20017;-59
2023/02/16 08:17:04;;;;;;;37.63;22.95;;;;;;;;;;5030402;28;20158;-60
2023/02/16 08:19:30;;;;;;;38.55;23.17;;;;;;;;;;5031578;28;20029;-60
2023/02/16 08:21:56;;;;;;;40.35;24.33;;;;;;;;;;5013885;28;20473;-62
2023/02/16 08:24:23;;;;;;;38.55;22.95;;;;;;;;;;5030674;28;20104;-61
2023/02/16 08:26:51;;;;;;;36.08;22.45;;;;;;;;;;5031282;28;20235;-57
2023/02/16 08:29:18;;;;;;;39.35;23.52;;;;;;;;;;5031883;28;20480;-67
2023/02/16 08:31:45;;;;;;;45.20;25.58;;;;;;;;;;5016928;28;20037;-65
2023/02/16 08:34:12;;;;;;;37.22;24.17;;;;;;;;;;5034737;28;20033;-67
2023/02/16 08:36:39;;;;;;;39.38;23.35;;;;;;;;;;5034467;28;20048;-66
2023/02/16 08:39:06;;;;;;;34.95;23.25;;;;;;;;;;5016614;28;20059;-62
2023/02/16 08:41:33;;;;;;;43.83;24.23;;;;;;;;;;5034096;28;20043;-66
2023/02/16 08:44:01;;;;;;;39.88;23.70;;;;;;;;;;5015594;28;20148;-68
2023/02/16 08:46:31;;;;;;;39.42;24.10;;;;;;;;;;5016829;28;20022;-67
2023/02/16 08:48:58;;;;;;;40.28;23.63;;;;;;;;;;5034905;28;20105;-66
2023/02/16 08:51:25;;;;;;;37.33;24.13;;;;;;;;;;5017458;28;20029;-67
2023/02/16 08:53:51;;;;;;;47.42;25.17;;;;;;;;;;5012426;28;20028;-67
2023/02/16 08:56:18;;;;;;;35.72;23.75;;;;;;;;;;5043607;28;20063;-66
2023/02/16 08:58:44;;;;;;;39.20;24.20;;;;;;;;;;5034514;28;20087;-68
2023/02/16 09:01:11;;;;;;;41.67;24.92;;;;;;;;;;5033054;28;20052;-66
2023/02/16 09:03:40;;;;;;;37.20;24.73;;;;;;;;;;5015516;28;20022;-68
2023/02/16 09:06:06;;;;;;;;;;;;;;;;;;5019562;28;20025;-68
2023/02/16 09:08:32;;;;;;;38.33;23.40;;;;;;;;;;5020969;28;20392;-66
2023/02/16 09:11:05;;;;;;;43.38;24.73;;;;;;;;;;5032015;28;20060;-66
2023/02/16 09:13:35;;;;;;;43.83;24.85;;;;;;;;;;5030255;28;20026;-67
2023/02/16 09:16:04;;;;;;;35.33;24.42;;;;;;;;;;5031000;28;20032;-65
2023/02/16 09:18:35;;;;;;;37.50;24.60;;;;;;;;;;5013575;28;20025;-63
2023/02/16 09:21:05;;;;;;;38.95;24.60;;;;;;;;;;5013517;28;20105;-65
2023/02/16 09:23:34;;;;;;;40.55;24.85;;;;;;;;;;5029556;28;20018;-65
2023/02/16 09:26:01;;;;;;;41.38;24.73;;;;;;;;;;5031049;28;20018;-65
2023/02/16 09:28:27;;;;;;;40.85;24.60;;;;;;;;;;5016097;28;20109;-65
2023/02/16 09:30:53;;;;;;;35.35;20.88;;;;;;;;;;5034965;28;20025;-66
2023/02/16 09:33:20;;;;;;;38.85;23.58;;;;;;;;;;5033965;28;20037;-66
2023/02/16 09:35:47;;;;;;;40.72;24.17;;;;;;;;;;5017120;28;20025;-65
2023/02/16 09:38:15;;;;;;;35.97;23.20;;;;;;;;;;5016957;28;20086;-65
2023/02/16 09:40:41;;;;;;;;;;;;;;;;;;5035084;28;20040;-65
2023/02/16 09:43:13;;;;;;;39.58;23.63;;;;;;;;;;5033959;28;19905;-65
2023/02/16 09:45:42;;;;;;;39.25;23.48;;;;;;;;;;5034495;28;20068;-61
2023/02/16 09:48:29;;;;;;;41.47;24.45;;;;;;;;;;5016848;28;20469;-65
2023/02/16 09:50:56;;;;;;;37.28;23.98;;;;;;;;;;5016307;28;20022;-65
2023/02/16 09:53:41;;;;;;;41.88;24.95;;;;;;;;;;5033712;28;20380;-65
2023/02/16 09:56:07;;;;;;;37.38;23.98;;;;;;;;;;5014950;28;20053;-67
2023/02/16 09:58:40;;;;;;;40.25;23.17;;;;;;;;;;5014913;28;20123;-67
2023/02/16 10:01:09;;;;;;;38.60;23.75;;;;;;;;;;4997273;28;20026;-66
2023/02/16 10:03:36;;;;;;;40.25;24.13;;;;;;;;;;5014043;28;20037;-65
2023/02/16 10:06:21;;;;;;;41.75;25.98;;;;;;;;;;5014225;28;20033;-64
2023/02/16 10:08:52;;;;;;;39.55;23.27;;;;;;;;;;4996974;28;20092;-65
2023/02/16 10:11:47;;;;;;;40.42;23.17;;;;;;;;;;4997556;28;20091;-65
2023/02/16 10:14:16;;;;;;;39.00;26.02;;;;;;;;;;5014045;28;20091;-65
2023/02/16 10:16:45;;;;;;;38.55;26.50;;;;;;;;;;5015477;28;20116;-65
2023/02/16 10:19:32;;;;;;;37.30;24.30;;;;;;;;;;5014549;28;20076;-66
2023/02/16 10:22:02;;;;;;;43.90;24.98;;;;;;;;;;4995712;28;20030;-65
2023/02/16 10:24:31;;;;;;;35.97;23.65;;;;;;;;;;5013947;28;20397;-65
2023/02/16 10:27:04;;;;;;;39.55;23.73;;;;;;;;;;5014754;28;20097;-65
2023/02/16 10:29:30;;;;;;;37.42;24.05;;;;;;;;;;4997208;28;20080;-66
2023/02/16 10:32:11;;;;;;;37.25;24.58;;;;;;;;;;5014513;28;20026;-66
2023/02/16 10:34:46;;;;;;;37.03;22.70;;;;;;;;;;5013696;28;20117;-63
2023/02/16 10:37:15;;;;;;;39.15;23.98;;;;;;;;;;5014330;28;20030;-66
2023/02/16 10:39:41;;;;;;;35.33;22.85;;;;;;;;;;5013478;28;20030;-61
2023/02/16 10:42:13;;;;;;;36.53;22.83;;;;;;;;;;5013900;28;20471;-65
2023/02/16 10:44:43;;;;;;;38.38;23.38;;;;;;;;;;4996108;28;20029;-64
2023/02/16 10:47:18;;;;;;;41.45;22.88;;;;;;;;;;4995494;28;20060;-65
2023/02/16 10:49:46;;;;;;;36.40;23.58;;;;;;;;;;5008326;28;20383;-65
2023/02/16 10:52:12;;;;;;;;;;;;;;;;;;5016061;28;20049;-66
2023/02/16 10:54:38;;;;;;;35.85;23.02;;;;;;;;;;5024336;28;19914;-65
2023/02/16 10:57:05;;;;;;;37.08;22.80;;;;;;;;;;5033708;28;20017;-65
2023/02/16 10:59:31;;;;;;;35.40;24.17;;;;;;;;;;5015790;28;20026;-64
2023/02/16 11:01:58;;;;;;;37.90;23.52;;;;;;;;;;5033442;28;20029;-64
2023/02/16 11:04:32;;;;;;;34.72;23.02;;;;;;;;;;5015120;28;20029;-65
2023/02/16 11:07:04;;;;;;;38.42;23.52;;;;;;;;;;5013227;28;20486;-66
2023/02/16 11:09:30;;;;;;;37.42;23.50;;;;;;;;;;5041778;28;20063;-66
2023/02/16 11:11:56;;;;;;;41.10;24.95;;;;;;;;;;5022514;28;20441;-65
2023/02/16 11:14:29;;;;;;;33.28;22.75;;;;;;;;;;5012848;28;20072;-65
2023/02/16 11:17:04;;;;;;;37.92;23.50;;;;;;;;;;5026946;28;20029;-65
2023/02/16 11:19:34;;;;;;;32.78;21.55;;;;;;;;;;5013788;28;20495;-64
2023/02/16 11:22:01;;;;;;;36.65;24.25;;;;;;;;;;5013412;28;20036;-66
2023/02/16 11:24:27;;;;;;;36.60;23.10;;;;;;;;;;5012632;28;20081;-64
2023/02/16 11:27:02;;;;;;;35.15;22.90;;;;;;;;;;5015903;28;20390;-64
2023/02/16 11:29:28;;;;;;;37.60;22.85;;;;;;;;;;5000173;28;20145;-66
2023/02/16 11:31:55;;;;;;;34.67;23.42;;;;;;;;;;5014474;28;20037;-66
2023/02/16 11:34:36;;;;;;;34.65;22.55;;;;;;;;;;5011588;28;20049;-67
2023/02/16 11:37:03;;;;;;;37.22;23.95;;;;;;;;;;5007621;28;20493;-67
2023/02/16 11:39:32;;;;;;;35.05;22.38;;;;;;;;;;5025336;28;20040;-66
2023/02/16 11:42:00;;;;;;;38.97;25.27;;;;;;;;;;5013338;28;20030;-67
2023/02/16 11:44:32;;;;;;;36.58;24.75;;;;;;;;;;5011928;28;20100;-69
2023/02/16 11:47:00;;;;;;;38.15;24.27;;;;;;;;;;5012947;28;20014;-69
2023/02/16 11:49:29;;;;;;;37.95;25.27;;;;;;;;;;5012183;28;20512;-68
2023/02/16 11:51:56;;;;;;;33.67;21.92;;;;;;;;;;5013323;28;20552;-67
2023/02/16 11:54:22;;;;;;;37.70;24.35;;;;;;;;;;5019269;28;20026;-68
2023/02/16 11:57:01;;;;;;;40.20;25.27;;;;;;;;;;5014524;28;20075;-68
2023/02/16 11:59:27;;;;;;;36.97;24.20;;;;;;;;;;5014462;28;20029;-68
2023/02/16 12:01:59;;;;;;;35.53;23.25;;;;;;;;;;5032341;28;20029;-69
2023/02/16 12:04:44;;;;;;;37.60;23.58;;;;;;;;;;5014064;28;20025;-69
2023/02/16 12:07:16;;;;;;;34.90;22.88;;;;;;;;;;5032572;28;20021;-67
2023/02/16 12:09:57;;;;;;;36.50;24.27;;;;;;;;;;5032587;28;20071;-68
2023/02/16 12:12:48;;;;;;;39.22;24.73;;;;;;;;;;5032133;28;20029;-67
2023/02/16 12:15:14;;;;;;;37.13;24.02;;;;;;;;;;5031414;28;20026;-69
2023/02/16 12:17:40;;;;;;;35.28;23.60;;;;;;;;;;5032443;28;20026;-68
2023/02/16 12:20:16;;;;;;;31.45;22.30;;;;;;;;;;5032041;28;20048;-69
2023/02/16 12:22:41;;;;;;;41.70;25.13;;;;;;;;;;5014348;28;20028;-67
2023/02/16 12:25:18;;;;;;;38.28;24.20;;;;;;;;;;5031283;28;20025;-69
2023/02/16 12:28:03;;;;;;;41.08;26.05;;;;;;;;;;5014114;28;20021;-69
2023/02/16 12:30:47;;;;;;;40.97;26.55;;;;;;;;;;5032166;28;20110;-68
2023/02/16 12:33:13;;;;;;;39.95;27.38;;;;;;;;;;5031659;28;20132;-68
2023/02/16 12:35:42;;;;;;;40.03;26.95;;;;;;;;;;5032481;28;20049;-68
2023/02/16 12:38:23;;;;;;;37.70;28.55;;;;;;;;;;5032501;28;20028;-68
2023/02/16 12:40:55;;;;;;;35.72;26.70;;;;;;;;;;5014148;28;20022;-68
2023/02/16 12:43:21;;;;;;;37.83;27.55;;;;;;;;;;5031738;28;20440;-68
2023/02/16 12:45:48;;;;;;;39.08;27.08;;;;;;;;;;5014943;28;20033;-66
2023/02/16 12:48:29;;;;;;;37.53;28.02;;;;;;;;;;5031486;28;20025;-67
2023/02/16 12:50:56;;;;;;;37.70;29.02;;;;;;;;;;5013569;28;20481;-67
2023/02/16 12:53:31;;;;;;;42.58;29.48;;;;;;;;;;5030211;28;20034;-68
2023/02/16 12:56:02;;;;;;;39.08;26.00;;;;;;;;;;5011466;28;20018;-66
2023/02/16 12:58:30;;;;;;;40.67;27.20;;;;;;;;;;4994159;28;20037;-66
2023/02/16 13:01:23;;;;;;;40.80;26.97;;;;;;;;;;5011915;28;20043;-66
2023/02/16 13:03:53;;;;;;;35.22;25.85;;;;;;;;;;5011336;28;20037;-68
2023/02/16 13:06:39;;;;;;;38.47;27.52;;;;;;;;;;5015596;28;20014;-68
2023/02/16 13:09:15;;;;;;;39.03;28.13;;;;;;;;;;4998519;28;20101;-67
2023/02/16 13:12:04;;;;;;;36.05;24.88;;;;;;;;;;4998352;28;20026;-67
2023/02/16 13:14:32;;;;;;;37.75;26.50;;;;;;;;;;4997246;28;20052;-69
2023/02/16 13:17:17;;;;;;;38.47;25.17;;;;;;;;;;4998130;28;20107;-68
2023/02/16 13:19:45;;;;;;;33.97;23.60;;;;;;;;;;5015767;28;20108;-67
2023/02/16 13:22:18;;;;;;;37.42;25.30;;;;;;;;;;5015188;28;20046;-67
2023/02/16 13:24:48;;;;;;;37.88;24.48;;;;;;;;;;4997364;28;20022;-65
2023/02/16 13:27:23;;;;;;;41.70;28.35;;;;;;;;;;5015708;28;20026;-68
2023/02/16 13:30:09;;;;;;;39.85;26.10;;;;;;;;;;5015390;28;20060;-67
2023/02/16 13:32:38;;;;;;;44.22;27.77;;;;;;;;;;5015317;28;20034;-71
2023/02/16 13:35:16;;;;;;;45.90;29.42;;;;;;;;;;4997221;28;20100;-67
2023/02/16 13:37:45;;;;;;;40.47;29.17;;;;;;;;;;5015531;28;20087;-66
2023/02/16 13:40:14;;;;;;;39.38;27.73;;;;;;;;;;4998600;28;20490;-66
2023/02/16 13:43:08;;;;;;;41.90;28.75;;;;;;;;;;5015719;28;20026;-67
2023/02/16 13:45:38;;;;;;;45.92;29.08;;;;;;;;;;5015706;28;20038;-67
2023/02/16 13:48:12;;;;;;;42.85;29.58;;;;;;;;;;5015969;28;20022;-67
2023/02/16 13:50:39;;;;;;;44.80;30.95;;;;;;;;;;5015851;28;20022;-66
2023/02/16 13:53:31;;;;;;;44.78;31.80;;;;;;;;;;5015204;28;20091;-66
2023/02/16 13:56:27;;;;;;;44.70;30.58;;;;;;;;;;5012656;28;20044;-64
2023/02/16 13:58:53;;;;;;;48.47;31.23;;;;;;;;;;4997461;28;20506;-66
2023/02/16 14:01:36;;;;;;;41.88;29.33;;;;;;;;;;4997395;28;20062;-63
2023/02/16 14:04:03;;;;;;;45.90;31.75;;;;;;;;;;4996624;28;20050;-65
2023/02/16 14:06:36;;;;;;;43.45;30.25;;;;;;;;;;4996858;28;20030;-64
2023/02/16 14:09:12;;;;;;;50.88;33.75;;;;;;;;;;5015496;28;20105;-65
2023/02/16 14:11:57;;;;;;;42.60;29.15;;;;;;;;;;4997515;28;20080;-64
2023/02/16 14:14:45;;;;;;;47.47;32.38;;;;;;;;;;4996502;28;20038;-66
2023/02/16 14:17:16;;;;;;;48.25;33.45;;;;;;;;;;4996723;28;20146;-65
2023/02/16 14:19:49;;;;;;;45.50;33.00;;;;;;;;;;5014814;28;20077;-64
2023/02/16 14:22:17;;;;;;;44.55;31.00;;;;;;;;;;5015021;28;20431;-66
2023/02/16 14:24:43;;;;;;;;;;;;;;;;;;5014744;28;20388;-64
2023/02/16 14:27:12;;;;;;;49.15;33.40;;;;;;;;;;5014614;28;19963;-68
2023/02/16 14:29:40;;;;;;;50.03;34.42;;;;;;;;;;5014099;28;20026;-65
2023/02/16 14:32:06;;;;;;;;;;;;;;;;;;5022254;28;20040;-65
2023/02/16 14:34:38;;;;;;;46.75;30.45;;;;;;;;;;5021701;28;20297;-66
2023/02/16 14:37:16;;;;;;;48.67;33.25;;;;;;;;;;5033048;28;20022;-67
2023/02/16 14:39:43;;;;;;;48.97;33.55;;;;;;;;;;5021345;28;20456;-65
2023/02/16 14:42:13;;;;;;;46.83;33.78;;;;;;;;;;5013539;28;20029;-61
2023/02/16 14:44:46;;;;;;;50.58;31.95;;;;;;;;;;5013009;28;20413;-64
2023/02/16 14:47:21;;;;;;;50.80;35.13;;;;;;;;;;5037946;28;20033;-63
2023/02/16 14:50:02;;;;;;;50.60;35.67;;;;;;;;;;5035028;28;20030;-59
2023/02/16 14:52:28;;;;;;;51.92;35.78;;;;;;;;;;5033241;28;20021;-64
2023/02/16 14:55:00;;;;;;;50.55;35.92;;;;;;;;;;5014257;28;20029;-61
2023/02/16 14:57:36;;;;;;;46.70;31.38;;;;;;;;;;5033321;28;20017;-63
2023/02/16 15:00:02;;;;;;;51.13;34.65;;;;;;;;;;5015474;28;20025;-61
2023/02/16 15:02:32;;;;;;;51.95;35.40;;;;;;;;;;5033183;28;20026;-62
2023/02/16 15:04:58;;;;;;;49.72;34.50;;;;;;;;;;5014068;28;20013;-62
2023/02/16 15:07:27;;;;;;;48.50;33.15;;;;;;;;;;5029800;28;20102;-64
2023/02/16 15:09:57;;;;;;;47.80;30.90;;;;;;;;;;5022786;28;20017;-61
2023/02/16 15:12:26;;;;;;;46.95;30.38;;;;;;;;;;5017798;28;20033;-64
2023/02/16 15:15:06;;;;;;;48.83;33.10;;;;;;;;;;5028675;28;20024;-64
2023/02/16 15:17:44;;;;;;;42.72;31.23;;;;;;;;;;5013280;28;20108;-64